Time;durP1;ratioP1;P1;durP2;ratioP2;P2;SDS_P1;SDS_P2;PMS_P1;PMS_P2;Temp;Humidity;BMP_temperature;BMP_pressure;BME280_temperature;BME280_humidity;BME280_pressure;Samples;Min_cycle;Max_cycle;Signal;HPM_P1;HPM_P2
2022/07/19 00:02:08;;;;;;;;;;;;;;;18.86;61.35;100832.75;5014416;28;1401;-86
2022/07/19 00:04:34;;;;;;;;;;;;;;;18.89;60.33;100840.41;5014744;28;1894;-86
2022/07/19 00:06:59;;;;;;;;;;;;;;;18.89;60.90;100831.25;5014589;28;1519;-87
2022/07/19 00:09:25;;;;;;;;;;;;;;;18.81;60.71;100846.75;5030799;28;1670;-86
2022/07/19 00:11:50;;;;;;;;;;;;;;;18.80;59.88;100847.91;5030350;28;1583;-88
2022/07/19 00:14:16;;;;;;;;;;;;;;;18.85;60.81;100844.16;5010919;28;1485;-87
2022/07/19 00:16:41;;;;;;;;;;;;;;;18.83;61.14;100849.22;4996999;28;1375;-87
2022/07/19 00:19:06;;;;;;;;;;;;;;;18.85;60.58;100844.16;5014247;28;1449;-88
2022/07/19 00:21:31;;;;;;;;;;;;;;;18.63;60.07;100842.38;5015484;28;1055;-87
2022/07/19 00:23:57;;;;;;;;;;;;;;;18.53;61.35;100835.19;4996102;28;1890;-87
2022/07/19 00:26:22;;;;;;;;;;;;;;;18.57;61.18;100840.09;5028934;28;1388;-87
2022/07/19 00:28:47;;;;;;;;;;;;;;;18.43;61.62;100840.22;5012894;28;1312;-87
2022/07/19 00:31:12;;;;;;;;;;;;;;;18.56;60.42;100838.41;5013023;28;1676;-86
2022/07/19 00:33:37;;;;;;;;;;;;;;;18.55;60.08;100840.38;5011859;28;1645;-87
2022/07/19 00:36:03;;;;;;;;;;;;;;;18.03;62.38;100842.28;5010037;28;1394;-88
2022/07/19 00:38:28;;;;;;;;;;;;;;;18.08;61.57;100847.66;5013500;28;1269;-88
2022/07/19 00:40:53;;;;;;;;;;;;;;;18.27;61.44;100841.84;5029217;28;1382;-87
2022/07/19 00:43:18;;;;;;;;;;;;;;;18.30;60.81;100841.16;5018970;28;1587;-87
2022/07/19 00:45:44;;;;;;;;;;;;;;;18.23;61.98;100841.66;5012467;28;1902;-87
2022/07/19 00:48:09;;;;;;;;;;;;;;;18.36;60.81;100839.88;5015440;28;1369;-87
2022/07/19 00:50:34;;;;;;;;;;;;;;;18.40;60.69;100838.09;4992431;28;1431;-88
2022/07/19 00:53:00;;;;;;;;;;;;;;;18.28;60.23;100838.75;5013110;28;1584;-87
2022/07/19 00:55:27;;;;;;;;;;;;;;;18.24;61.21;100845.25;5029903;28;1632;-88
2022/07/19 00:57:53;;;;;;;;;;;;;;;17.58;63.51;100842.41;5034062;28;1579;-87
2022/07/19 01:00:19;;;;;;;;;;;;;;;17.72;63.72;100842.31;5012120;28;1177;-87
2022/07/19 01:02:44;;;;;;;;;;;;;;;17.83;63.34;100842.84;4995514;28;1638;-87
2022/07/19 01:05:10;;;;;;;;;;;;;;;18.07;61.70;100844.06;5013557;28;2007;-88
2022/07/19 01:07:37;;;;;;;;;;;;;;;17.91;62.68;100845.66;5028233;28;1582;-87
2022/07/19 01:10:03;;;;;;;;;;;;;;;17.87;61.60;100841.88;5012630;28;1436;-87
2022/07/19 01:12:29;;;;;;;;;;;;;;;17.79;62.67;100837.13;5027341;28;1796;-87
2022/07/19 01:14:55;;;;;;;;;;;;;;;17.73;62.59;100838.41;5011646;28;1285;-87
2022/07/19 01:17:20;;;;;;;;;;;;;;;17.60;63.90;100834.59;4995739;28;1277;-87
2022/07/19 01:19:45;;;;;;;;;;;;;;;17.18;64.88;100836.00;5012158;28;1324;-87
2022/07/19 01:22:11;;;;;;;;;;;;;;;17.14;64.97;100836.97;5028412;28;1255;-87
2022/07/19 01:24:36;;;;;;;;;;;;;;;17.16;63.80;100835.50;5011297;28;1955;-87
2022/07/19 01:27:01;;;;;;;;;;;;;;;17.52;62.76;100831.81;5011560;28;1342;-87
2022/07/19 01:29:26;;;;;;;;;;;;;;;17.53;62.09;100831.47;4995553;28;1338;-87
2022/07/19 01:31:51;;;;;;;;;;;;;;;17.60;63.07;100829.06;5013260;28;1636;-87
2022/07/19 01:34:17;;;;;;;;;;;;;;;17.59;63.10;100832.97;4994643;28;1611;-87
2022/07/19 01:36:42;;;;;;;;;;;;;;;17.64;62.20;100841.16;5011666;28;1315;-88
2022/07/19 01:39:07;;;;;;;;;;;;;;;17.37;62.85;100844.06;4995776;28;1371;-87
2022/07/19 01:41:32;;;;;;;;;;;;;;;17.32;62.70;100839.50;5011712;28;1657;-87
2022/07/19 01:43:57;;;;;;;;;;;;;;;17.17;63.85;100845.44;5015441;28;1899;-87
2022/07/19 01:46:22;;;;;;;;;;;;;;;17.00;63.87;100848.09;5010758;28;1445;-87
2022/07/19 01:48:48;;;;;;;;;;;;;;;17.23;63.68;100849.72;5023294;28;1421;-87
2022/07/19 01:51:13;;;;;;;;;;;;;;;17.26;62.78;100854.63;5022920;28;1158;-87
2022/07/19 01:53:38;;;;;;;;;;;;;;;17.06;63.65;100854.31;5021607;28;1838;-87
2022/07/19 01:56:04;;;;;;;;;;;;;;;17.09;64.05;100856.47;5020794;28;1426;-87
2022/07/19 01:58:29;;;;;;;;;;;;;;;17.20;63.22;100853.09;5006444;28;1405;-87
2022/07/19 02:00:54;;;;;;;;;;;;;;;17.28;62.78;100857.88;5024657;28;1070;-87
2022/07/19 02:03:20;;;;;;;;;;;;;;;17.13;64.05;100852.72;5017368;28;1448;-86
2022/07/19 02:05:45;;;;;;;;;;;;;;;16.92;63.76;100855.22;5014897;28;1957;-88
2022/07/19 02:08:10;;;;;;;;;;;;;;;16.83;63.79;100859.84;4998972;28;1296;-87
2022/07/19 02:10:35;;;;;;;;;;;;;;;16.90;64.39;100857.47;5016524;28;1404;-87
2022/07/19 02:13:00;;;;;;;;;;;;;;;16.93;63.62;100861.53;5014744;28;1637;-87
2022/07/19 02:15:25;;;;;;;;;;;;;;;16.83;63.94;100859.84;4998678;28;1492;-87
2022/07/19 02:17:50;;;;;;;;;;;;;;;16.74;63.79;100863.69;5016392;28;1605;-86
2022/07/19 02:20:16;;;;;;;;;;;;;;;16.39;64.77;100865.28;5015194;28;1188;-86
2022/07/19 02:22:41;;;;;;;;;;;;;;;16.35;65.44;100865.06;5014837;28;1444;-86
2022/07/19 02:25:06;;;;;;;;;;;;;;;16.42;65.20;100864.63;5012462;28;1894;-87
2022/07/19 02:27:32;;;;;;;;;;;;;;;16.51;64.44;100857.25;5015110;28;1383;-87
2022/07/19 02:29:57;;;;;;;;;;;;;;;16.55;65.01;100859.09;5015293;28;1634;-87
2022/07/19 02:32:23;;;;;;;;;;;;;;;16.56;64.60;100865.44;5015876;28;1605;-86
2022/07/19 02:34:48;;;;;;;;;;;;;;;16.61;64.01;100860.63;5015986;28;1580;-88
2022/07/19 02:37:13;;;;;;;;;;;;;;;16.51;64.77;100858.06;5013037;28;1588;-87
2022/07/19 02:39:38;;;;;;;;;;;;;;;16.52;64.31;100858.88;5001948;28;1517;-87
2022/07/19 02:42:03;;;;;;;;;;;;;;;16.43;64.49;100858.81;5014486;28;1340;-88
2022/07/19 02:44:28;;;;;;;;;;;;;;;16.27;65.16;100869.38;5021664;28;1894;-87
2022/07/19 02:46:53;;;;;;;;;;;;;;;16.35;64.68;100867.00;5014351;28;1398;-87
2022/07/19 02:49:20;;;;;;;;;;;;;;;16.29;65.15;100863.56;5014117;28;1413;-87
2022/07/19 02:51:45;;;;;;;;;;;;;;;16.21;65.10;100873.38;5013849;28;1372;-87
2022/07/19 02:54:11;;;;;;;;;;;;;;;16.07;65.71;100864.31;5006766;28;1398;-87
2022/07/19 02:56:36;;;;;;;;;;;;;;;15.74;66.15;100865.53;4997790;28;1647;-88
2022/07/19 02:59:01;;;;;;;;;;;;;;;15.95;66.16;100864.00;5013783;28;1428;-87
2022/07/19 03:01:29;;;;;;;;;;;;;;;16.09;65.51;100859.28;5014158;28;1657;-87
2022/07/19 03:03:54;;;;;;;;;;;;;;;16.14;65.22;100870.22;5013580;28;1890;-88
2022/07/19 03:06:19;;;;;;;;;;;;;;;15.69;66.17;100860.13;5012619;28;1302;-87
2022/07/19 03:08:45;;;;;;;;;;;;;;;15.54;67.36;100866.75;5027111;28;1844;-87
2022/07/19 03:11:12;;;;;;;;;;;;;;;15.78;66.39;100869.31;5015188;28;1660;-87
2022/07/19 03:13:37;;;;;;;;;;;;;;;15.89;66.43;100866.06;5013473;28;1405;-87
2022/07/19 03:16:03;;;;;;;;;;;;;;;16.02;65.71;100874.63;5014204;28;1645;-87
2022/07/19 03:18:28;;;;;;;;;;;;;;;15.92;65.87;100877.59;4997487;28;1592;-87
2022/07/19 03:20:55;;;;;;;;;;;;;;;15.99;65.52;100864.22;5029957;28;1906;-87
2022/07/19 03:23:22;;;;;;;;;;;;;;;15.86;65.91;100872.19;5029424;28;1334;-87
2022/07/19 03:25:48;;;;;;;;;;;;;;;15.49;66.91;100878.66;5022522;28;1890;-86
2022/07/19 03:28:13;;;;;;;;;;;;;;;15.49;67.21;100875.88;5014028;28;1452;-87
2022/07/19 03:30:38;;;;;;;;;;;;;;;15.72;66.35;100868.59;5013876;28;1273;-87
2022/07/19 03:33:03;;;;;;;;;;;;;;;15.81;66.06;100871.47;5014945;28;1429;-87
2022/07/19 03:35:28;;;;;;;;;;;;;;;15.69;66.69;100865.63;4996923;28;1427;-87
2022/07/19 03:37:54;;;;;;;;;;;;;;;15.66;66.46;100872.56;5031182;28;1358;-86
2022/07/19 03:40:19;;;;;;;;;;;;;;;15.74;66.60;100865.53;5031319;28;1631;-87
2022/07/19 03:42:44;;;;;;;;;;;;;;;15.68;66.12;100878.59;5016071;28;1600;-86
2022/07/19 03:45:09;;;;;;;;;;;;;;;15.55;66.97;100878.59;5029052;28;1944;-86
2022/07/19 03:47:35;;;;;;;;;;;;;;;15.32;67.31;100874.84;4999334;28;1465;-88
2022/07/19 03:50:00;;;;;;;;;;;;;;;15.43;67.63;100876.28;5012049;28;1639;-86
2022/07/19 03:52:25;;;;;;;;;;;;;;;15.01;67.59;100880.06;5032175;28;1303;-86
2022/07/19 03:54:50;;;;;;;;;;;;;;;14.96;69.18;100880.97;5014435;28;1487;-87
2022/07/19 03:57:15;;;;;;;;;;;;;;;15.27;68.84;100878.50;5016477;28;1588;-86
2022/07/19 03:59:41;;;;;;;;;;;;;;;15.29;68.21;100876.28;5011619;28;1654;-86
2022/07/19 04:02:06;;;;;;;;;;;;;;;15.15;68.73;100875.41;5022222;28;1395;-86
2022/07/19 04:04:31;;;;;;;;;;;;;;;15.41;68.04;100878.53;5014015;28;1925;-86
2022/07/19 04:06:56;;;;;;;;;;;;;;;15.50;67.50;100877.53;4998278;28;1448;-86
2022/07/19 04:09:21;;;;;;;;;;;;;;;15.28;68.66;100874.63;5015820;28;1692;-85
2022/07/19 04:11:47;;;;;;;;;;;;;;;15.23;68.97;100874.72;4999576;28;1537;-85
2022/07/19 04:14:12;;;;;;;;;;;;;;;15.23;68.38;100873.88;5016503;28;1328;-85
2022/07/19 04:16:37;;;;;;;;;;;;;;;15.51;67.52;100881.13;5012264;28;1381;-86
2022/07/19 04:19:02;;;;;;;;;;;;;;;15.32;68.54;100883.09;5015789;28;1978;-86
2022/07/19 04:21:27;;;;;;;;;;;;;;;15.29;68.95;100881.78;5013520;28;1338;-85
2022/07/19 04:23:52;;;;;;;;;;;;;;;15.45;68.91;100882.34;5028879;28;1738;-86
2022/07/19 04:26:17;;;;;;;;;;;;;;;15.45;68.07;100874.88;5013007;28;1894;-86
2022/07/19 04:28:43;;;;;;;;;;;;;;;15.63;68.43;100883.41;5028433;28;1642;-86
2022/07/19 04:31:08;;;;;;;;;;;;;;;15.75;67.52;100884.53;5013929;28;1335;-85
2022/07/19 04:33:33;;;;;;;;;;;;;;;15.53;67.98;100881.63;5013433;28;1237;-86
2022/07/19 04:35:58;;;;;;;;;;;;;;;15.46;68.03;100887.56;5031520;28;1238;-86
2022/07/19 04:38:23;;;;;;;;;;;;;;;15.33;68.82;100890.25;5016728;28;1402;-87
2022/07/19 04:40:49;;;;;;;;;;;;;;;15.21;69.94;100888.00;4999652;28;1572;-86
2022/07/19 04:43:16;;;;;;;;;;;;;;;15.44;69.94;100887.03;5031082;28;1248;-86
2022/07/19 04:45:41;;;;;;;;;;;;;;;15.58;69.73;100887.06;4997948;28;2007;-86
2022/07/19 04:48:07;;;;;;;;;;;;;;;15.71;68.83;100896.50;5014920;28;1726;-86
2022/07/19 04:50:32;;;;;;;;;;;;;;;15.27;70.19;100895.06;5016325;28;1190;-86
2022/07/19 04:52:57;;;;;;;;;;;;;;;15.17;70.76;100889.72;4996340;28;1865;-86
2022/07/19 04:55:23;;;;;;;;;;;;;;;15.14;70.88;100888.38;5012829;28;1831;-87
2022/07/19 04:57:49;;;;;;;;;;;;;;;15.21;71.48;100889.94;5012183;28;1448;-86
2022/07/19 05:00:14;;;;;;;;;;;;;;;15.48;70.66;100890.81;5010744;28;1490;-86
2022/07/19 05:02:39;;;;;;;;;;;;;;;15.48;70.94;100892.78;4995854;28;1449;-86
2022/07/19 05:05:05;;;;;;;;;;;;;;;15.50;70.72;100887.75;5013395;28;1969;-86
2022/07/19 05:07:30;;;;;;;;;;;;;;;15.56;71.02;100894.03;5028461;28;1762;-85
2022/07/19 05:09:56;;;;;;;;;;;;;;;15.46;71.82;100872.94;5012638;28;1594;-86
2022/07/19 05:12:21;;;;;;;;;;;;;;;15.60;71.73;100893.13;5013686;28;1297;-86
2022/07/19 05:14:46;;;;;;;;;;;;;;;15.64;72.42;100885.88;5013184;28;1480;-86
2022/07/19 05:17:11;;;;;;;;;;;;;;;15.82;72.51;100895.19;5014730;28;1501;-86
2022/07/19 05:19:36;;;;;;;;;;;;;;;15.87;73.28;100898.66;5015955;28;1634;-86
2022/07/19 05:22:02;;;;;;;;;;;;;;;15.93;73.08;100896.63;5016157;28;1705;-86
2022/07/19 05:24:27;;;;;;;;;;;;;;;15.96;74.08;100900.72;5015087;28;1956;-86
2022/07/19 05:26:52;;;;;;;;;;;;;;;16.01;74.58;100898.66;5016920;28;1438;-86
2022/07/19 05:29:17;;;;;;;;;;;;;;;16.04;74.94;100903.59;5015900;28;1408;-86
2022/07/19 05:31:42;;;;;;;;;;;;;;;16.19;74.20;100897.72;5033769;28;1273;-86
2022/07/19 05:34:07;;;;;;;;;;;;;;;16.28;74.68;100893.13;5016024;28;1556;-86
2022/07/19 05:36:33;;;;;;;;;;;;;;;16.39;74.44;100890.16;5016907;28;1629;-86
2022/07/19 05:38:58;;;;;;;;;;;;;;;16.50;74.98;100888.81;5016237;28;1864;-86
2022/07/19 05:41:23;;;;;;;;;;;;;;;16.60;74.61;100891.31;5000949;28;1333;-86
2022/07/19 05:43:49;;;;;;;;;;;;;;;16.72;73.73;100899.91;5016809;28;1254;-86
2022/07/19 05:46:14;;;;;;;;;;;;;;;16.82;73.26;100891.41;5016336;28;1942;-85
2022/07/19 05:48:39;;;;;;;;;;;;;;;16.86;73.26;100886.03;5015964;28;1859;-86
2022/07/19 05:51:05;;;;;;;;;;;;;;;16.84;73.18;100880.81;5016371;28;1440;-86
2022/07/19 05:53:30;;;;;;;;;;;;;;;16.91;72.13;100880.41;5016876;28;1339;-86
2022/07/19 05:55:55;;;;;;;;;;;;;;;16.96;72.70;100881.09;4997058;28;1659;-85
2022/07/19 05:58:21;;;;;;;;;;;;;;;17.01;72.83;100882.94;4999641;28;1602;-86
2022/07/19 06:03:30;;;;;;;;;;;;;;;17.15;72.87;100885.63;5019612;28;739;-85
2022/07/19 06:05:55;;;;;;;;;;;;;;;17.17;72.31;100884.19;5017406;28;1914;-85
2022/07/19 06:08:21;;;;;;;;;;;;;;;17.21;72.87;100884.34;5013780;28;1323;-85
2022/07/19 06:10:46;;;;;;;;;;;;;;;17.23;72.78;100879.31;5016274;28;1347;-85
2022/07/19 06:13:11;;;;;;;;;;;;;;;17.26;72.03;100884.25;5031839;28;1431;-85
2022/07/19 06:15:36;;;;;;;;;;;;;;;17.25;72.96;100877.06;5015594;28;1456;-85
2022/07/19 06:18:01;;;;;;;;;;;;;;;17.30;72.71;100883.28;5015554;28;1617;-85
2022/07/19 06:20:26;;;;;;;;;;;;;;;17.36;71.81;100883.94;5024428;28;1375;-86
2022/07/19 06:22:51;;;;;;;;;;;;;;;17.38;72.33;100881.69;5033285;28;1402;-85
2022/07/19 06:25:17;;;;;;;;;;;;;;;17.41;72.55;100881.06;5016274;28;1918;-86
2022/07/19 06:27:42;;;;;;;;;;;;;;;17.48;72.33;100883.38;5000366;28;1647;-86
2022/07/19 06:30:07;;;;;;;;;;;;;;;17.53;72.07;100883.22;5000881;28;1793;-86
2022/07/19 06:32:32;;;;;;;;;;;;;;;17.57;72.17;100874.00;4998823;28;1512;-84
2022/07/19 06:35:10;;;;;;;;;;;;;;;17.63;71.79;100877.47;5017411;28;1272;-86
2022/07/19 06:37:38;;;;;;;;;;;;;;;17.66;72.91;100874.06;5032559;28;1690;-86
2022/07/19 06:40:09;;;;;;;;;;;;;;;17.69;72.37;100871.44;5017217;28;1393;-86
2022/07/19 06:42:35;;;;;;;;;;;;;;;17.73;71.63;100878.00;5009018;28;1431;-85
2022/07/19 06:45:01;;;;;;;;;;;;;;;17.79;71.84;100870.34;5026535;28;1898;-85
2022/07/19 06:47:32;;;;;;;;;;;;;;;17.82;72.32;100871.69;5001678;28;1479;-85
2022/07/19 06:49:58;;;;;;;;;;;;;;;17.86;70.49;100876.28;5016501;28;1680;-87
2022/07/19 06:52:28;;;;;;;;;;;;;;;17.90;70.37;100874.47;5000208;28;1468;-85
2022/07/19 06:54:53;;;;;;;;;;;;;;;17.94;70.97;100877.44;5017245;28;1826;-86
2022/07/19 06:57:18;;;;;;;;;;;;;;;17.98;69.86;100873.69;5016904;28;1829;-86
2022/07/19 06:59:43;;;;;;;;;;;;;;;18.03;69.74;100878.28;5016273;28;1792;-86
2022/07/19 07:02:08;;;;;;;;;;;;;;;18.04;70.70;100874.34;5017422;28;1193;-85
2022/07/19 07:04:33;;;;;;;;;;;;;;;18.07;70.43;100871.75;5000107;28;1887;-86
2022/07/19 07:06:59;;;;;;;;;;;;;;;18.12;70.90;100870.78;5030965;28;1596;-85
2022/07/19 07:09:24;;;;;;;;;;;;;;;18.17;70.83;100865.13;5032087;28;1108;-86
2022/07/19 07:11:49;;;;;;;;;;;;;;;18.22;69.85;100873.25;5015408;28;1796;-86
2022/07/19 07:14:14;;;;;;;;;;;;;;;18.28;71.45;100865.63;5014429;28;1606;-86
2022/07/19 07:16:39;;;;;;;;;;;;;;;18.34;71.36;100865.16;5019787;28;1612;-87
2022/07/19 07:19:04;;;;;;;;;;;;;;;18.38;69.70;100866.13;5015917;28;1355;-85
2022/07/19 07:21:33;;;;;;;;;;;;;;;18.42;69.81;100858.81;5015486;28;1440;-86
2022/07/19 07:23:58;;;;;;;;;;;;;;;18.48;69.81;100865.81;5015481;28;1597;-85
2022/07/19 07:26:23;;;;;;;;;;;;;;;18.56;69.96;100858.63;5032579;28;1875;-87
2022/07/19 07:28:48;;;;;;;;;;;;;;;18.61;69.09;100864.06;5014495;28;1553;-87
2022/07/19 07:31:13;;;;;;;;;;;;;;;18.63;70.20;100858.22;5013648;28;1359;-86
2022/07/19 07:33:38;;;;;;;;;;;;;;;18.65;69.14;100858.69;5030216;28;1745;-88
2022/07/19 07:36:04;;;;;;;;;;;;;;;18.74;68.83;100854.75;5014644;28;1821;-88
2022/07/19 07:38:29;;;;;;;;;;;;;;;18.81;69.92;100857.03;5014351;28;1634;-89
2022/07/19 07:40:55;;;;;;;;;;;;;;;18.82;68.62;100848.41;5030374;28;1035;-88
2022/07/19 07:43:20;;;;;;;;;;;;;;;18.87;69.04;100850.22;5030128;28;1549;-87
2022/07/19 07:45:45;;;;;;;;;;;;;;;18.93;69.19;100848.06;5031253;28;1957;-88
2022/07/19 07:48:11;;;;;;;;;;;;;;;19.02;67.34;100846.91;5015140;28;1664;-88
2022/07/19 07:50:36;;;;;;;;;;;;;;;19.06;66.27;100842.31;5030543;28;1392;-87
2022/07/19 07:53:01;;;;;;;;;;;;;;;19.11;67.01;100847.72;5010095;28;1437;-88
2022/07/19 07:55:26;;;;;;;;;;;;;;;19.20;68.47;100844.94;5015992;28;841;-88
2022/07/19 07:57:51;;;;;;;;;;;;;;;19.25;68.13;100851.13;5012893;28;1398;-88
2022/07/19 08:00:18;;;;;;;;;;;;;;;19.31;66.81;100845.41;4995708;28;1410;-87
2022/07/19 08:02:44;;;;;;;;;;;;;;;19.37;66.90;100841.28;5026119;28;1437;-87
2022/07/19 08:05:10;;;;;;;;;;;;;;;19.47;66.78;100846.50;4996450;28;1938;-88
2022/07/19 08:07:36;;;;;;;;;;;;;;;19.59;66.45;100841.06;4996488;28;1428;-87
2022/07/19 08:10:03;;;;;;;;;;;;;;;19.68;65.94;100839.06;5012964;28;1340;-87
2022/07/19 08:12:29;;;;;;;;;;;;;;;19.75;66.23;100838.56;4996448;28;1357;-88
2022/07/19 08:14:54;;;;;;;;;;;;;;;19.88;65.14;100838.34;5014014;28;814;-87
2022/07/19 08:17:19;;;;;;;;;;;;;;;19.93;64.63;100832.59;5025998;28;1483;-88
2022/07/19 08:19:44;;;;;;;;;;;;;;;19.96;64.48;100837.47;4996992;28;972;-88
2022/07/19 08:22:09;;;;;;;;;;;;;;;20.00;65.06;100832.88;4996079;28;1750;-88
2022/07/19 08:24:34;;;;;;;;;;;;;;;20.08;64.26;100833.97;5012257;28;1893;-88
2022/07/19 08:26:59;;;;;;;;;;;;;;;20.14;64.62;100831.81;5013366;28;1417;-88
2022/07/19 08:29:25;;;;;;;;;;;;;;;20.26;64.57;100829.09;5013109;28;1059;-88
2022/07/19 08:31:50;;;;;;;;;;;;;;;20.38;63.65;100829.22;5012790;28;1220;-87
2022/07/19 08:34:15;;;;;;;;;;;;;;;20.49;61.62;100829.66;5012334;28;1600;-88
2022/07/19 08:36:40;;;;;;;;;;;;;;;20.47;61.34;100829.16;5013756;28;1209;-87
2022/07/19 08:39:06;;;;;;;;;;;;;;;20.57;62.21;100829.59;5012274;28;1461;-88
2022/07/19 08:41:31;;;;;;;;;;;;;;;20.57;63.09;100824.03;5011629;28;1404;-88
2022/07/19 08:43:58;;;;;;;;;;;;;;;20.63;62.63;100814.31;5013511;28;1067;-88
2022/07/19 08:46:23;;;;;;;;;;;;;;;20.75;62.32;100816.34;5001935;28;1898;-88
2022/07/19 08:48:48;;;;;;;;;;;;;;;20.83;62.66;100809.06;5012689;28;1300;-87
2022/07/19 08:51:17;;;;;;;;;;;;;;;20.87;61.75;100813.59;5012257;28;1197;-88
2022/07/19 08:53:43;;;;;;;;;;;;;;;20.99;61.83;100810.88;5012375;28;1558;-88
2022/07/19 08:58:52;;;;;;;;;;;;;;;21.09;61.22;100816.00;5033682;28;647;-88
2022/07/19 09:01:18;;;;;;;;;;;;;;;21.20;60.81;100810.00;5005120;28;1354;-88
2022/07/19 09:04:02;;;;;;;;;;;;;;;21.28;59.03;100803.53;5028576;28;1164;-88
2022/07/19 09:06:36;;;;;;;;;;;;;;;21.40;59.38;100807.16;5013653;28;1902;-88
2022/07/19 09:09:02;;;;;;;;;;;;;;;21.45;60.23;100812.50;5028515;28;1994;-87
2022/07/19 09:11:34;;;;;;;;;;;;;;;21.55;59.59;100797.31;5028930;28;1259;-87
2022/07/19 09:14:07;;;;;;;;;;;;;;;21.62;59.87;100803.09;5012180;28;1237;-88
2022/07/19 09:16:48;;;;;;;;;;;;;;;21.67;59.97;100800.09;5013546;28;1213;-88
2022/07/19 09:19:13;;;;;;;;;;;;;;;21.84;60.50;100799.88;5013619;28;861;-88
2022/07/19 09:21:58;;;;;;;;;;;;;;;21.87;59.50;100803.91;5013475;28;1114;-87
2022/07/19 09:24:24;;;;;;;;;;;;;;;21.95;59.32;100800.19;5012070;28;1952;-88
2022/07/19 09:26:58;;;;;;;;;;;;;;;22.09;58.71;100799.88;5013396;28;1299;-87
2022/07/19 09:29:23;;;;;;;;;;;;;;;22.17;56.93;100793.38;5028615;28;1350;-88
2022/07/19 09:32:04;;;;;;;;;;;;;;;22.22;57.76;100782.75;5011894;28;1810;-87
2022/07/19 09:34:30;;;;;;;;;;;;;;;22.22;57.60;100779.16;5028493;28;1211;-87
2022/07/19 09:37:12;;;;;;;;;;;;;;;22.33;58.54;100779.50;5013352;28;1232;-87
2022/07/19 09:39:41;;;;;;;;;;;;;;;22.50;56.31;100773.63;5013052;28;1264;-87
2022/07/19 09:42:06;;;;;;;;;;;;;;;22.64;56.42;100774.03;4997924;28;1252;-86
2022/07/19 09:44:31;;;;;;;;;;;;;;;22.65;55.89;100767.28;5012946;28;1902;-87
2022/07/19 09:46:56;;;;;;;;;;;;;;;22.77;56.71;100772.84;5013042;28;1169;-87
2022/07/19 09:49:21;;;;;;;;;;;;;;;22.78;55.87;100770.88;5011968;28;1188;-87
2022/07/19 09:51:48;;;;;;;;;;;;;;;22.85;56.28;100771.06;5011723;28;1256;-87
2022/07/19 09:54:14;;;;;;;;;;;;;;;22.97;53.56;100769.00;5012702;28;1015;-87
2022/07/19 09:56:40;;;;;;;;;;;;;;;23.04;53.47;100762.84;4995476;28;1371;-87
2022/07/19 09:59:06;;;;;;;;;;;;;;;23.01;52.77;100761.56;5013033;28;1004;-88
2022/07/19 10:01:32;;;;;;;;;;;;;;;23.24;54.33;100758.97;4995287;28;1394;-87
2022/07/19 10:04:07;;;;;;;;;;;;;;;23.28;52.55;100764.66;5029003;28;1205;-87
2022/07/19 10:06:33;;;;;;;;;;;;;;;23.37;52.53;100759.69;5031976;28;1885;-86
2022/07/19 10:09:00;;;;;;;;;;;;;;;23.50;54.12;100760.44;5033085;28;1845;-87
2022/07/19 10:11:26;;;;;;;;;;;;;;;23.53;52.78;100759.72;5016442;28;1319;-88
2022/07/19 10:13:52;;;;;;;;;;;;;;;23.79;47.58;100759.16;4998702;28;1177;-87
2022/07/19 10:16:21;;;;;;;;;;;;;;;23.72;49.54;100759.81;5016511;28;988;-87
2022/07/19 10:19:15;;;;;;;;;;;;;;;23.73;47.94;100750.25;5030862;28;1341;-87
2022/07/19 10:21:41;;;;;;;;;;;;;;;23.72;47.70;100757.81;5023193;28;1450;-88
2022/07/19 10:24:06;;;;;;;;;;;;;;;23.80;45.30;100752.41;5034796;28;1197;-87
2022/07/19 10:26:36;;;;;;;;;;;;;;;23.80;45.45;100744.00;5034722;28;1886;-87
2022/07/19 10:29:11;;;;;;;;;;;;;;;23.92;46.30;100738.28;5031839;28;1656;-88
2022/07/19 10:31:37;;;;;;;;;;;;;;;23.93;45.62;100742.69;5003104;28;1360;-87
2022/07/19 10:34:02;;;;;;;;;;;;;;;24.03;46.10;100740.16;4998456;28;1233;-88
2022/07/19 10:36:31;;;;;;;;;;;;;;;24.11;47.09;100730.75;5016382;28;1472;-87
2022/07/19 10:39:15;;;;;;;;;;;;;;;24.30;46.08;100717.97;4996525;28;983;-87
2022/07/19 10:42:00;;;;;;;;;;;;;;;24.25;47.33;100715.47;5011790;28;1232;-87
2022/07/19 10:44:25;;;;;;;;;;;;;;;24.27;46.19;100697.13;4995909;28;1901;-87
2022/07/19 10:46:51;;;;;;;;;;;;;;;24.34;46.63;100702.88;5013114;28;1334;-87
2022/07/19 10:49:36;;;;;;;;;;;;;;;24.46;47.53;100699.13;5015738;28;1586;-87
2022/07/19 10:52:24;;;;;;;;;;;;;;;24.60;45.87;100705.00;5004072;28;1518;-87
2022/07/19 10:55:08;;;;;;;;;;;;;;;24.58;44.83;100701.78;5015097;28;1346;-87
2022/07/19 10:57:37;;;;;;;;;;;;;;;24.63;46.86;100697.84;5025576;28;1534;-87
2022/07/19 11:00:15;;;;;;;;;;;;;;;24.75;45.32;100694.91;5023125;28;1665;-86
2022/07/19 11:02:40;;;;;;;;;;;;;;;24.96;42.02;100692.50;5014938;28;1614;-87
2022/07/19 11:05:05;;;;;;;;;;;;;;;24.81;45.29;100687.81;4997325;28;1902;-87
2022/07/19 11:07:30;;;;;;;;;;;;;;;24.85;43.51;100694.25;5015219;28;1506;-87
2022/07/19 11:09:57;;;;;;;;;;;;;;;24.91;44.11;100691.97;4998328;28;1297;-87
2022/07/19 11:12:32;;;;;;;;;;;;;;;24.94;44.23;100691.25;5016334;28;1421;-87
2022/07/19 11:14:59;;;;;;;;;;;;;;;25.05;43.05;100681.88;5007594;28;1488;-88
2022/07/19 11:17:24;;;;;;;;;;;;;;;25.03;42.97;100677.81;5014931;28;1707;-87
2022/07/19 11:19:59;;;;;;;;;;;;;;;25.22;42.11;100670.16;4997613;28;1829;-87
2022/07/19 11:22:25;;;;;;;;;;;;;;;25.33;41.89;100675.13;4998208;28;1714;-87
2022/07/19 11:24:50;;;;;;;;;;;;;;;25.34;41.27;100677.56;5014190;28;1963;-87
2022/07/19 11:27:16;;;;;;;;;;;;;;;25.25;41.58;100672.22;5013789;28;1620;-90
2022/07/19 11:29:54;;;;;;;;;;;;;;;25.40;41.42;100676.03;5017720;28;1618;-90
2022/07/19 11:32:19;;;;;;;;;;;;;;;25.37;40.45;100676.78;5017097;28;1448;-89
2022/07/19 11:34:58;;;;;;;;;;;;;;;25.37;40.77;100664.75;5015796;28;1463;-90
2022/07/19 11:37:28;;;;;;;;;;;;;;;25.46;42.40;100668.09;5000126;28;1605;-89
2022/07/19 11:39:54;;;;;;;;;;;;;;;25.51;40.16;100656.59;5034891;28;1097;-90
2022/07/19 11:42:33;;;;;;;;;;;;;;;25.70;40.25;100656.47;5018875;28;837;-89
2022/07/19 11:44:59;;;;;;;;;;;;;;;25.62;41.09;100649.16;5017986;28;1953;-88
2022/07/19 11:47:24;;;;;;;;;;;;;;;25.65;39.78;100642.81;5002379;28;1365;-88
2022/07/19 11:49:49;;;;;;;;;;;;;;;25.69;41.49;100640.06;5020305;28;1473;-87
2022/07/19 11:52:14;;;;;;;;;;;;;;;25.79;40.89;100648.59;5001951;28;1230;-87
2022/07/19 11:54:40;;;;;;;;;;;;;;;25.81;39.66;100639.81;5017543;28;1475;-87
2022/07/19 11:57:21;;;;;;;;;;;;;;;25.88;40.52;100637.91;5018729;28;1789;-88
2022/07/19 11:59:46;;;;;;;;;;;;;;;25.94;40.72;100635.59;5001732;28;1309;-88
2022/07/19 12:02:12;;;;;;;;;;;;;;;25.99;39.17;100635.25;5033827;28;1588;-87
2022/07/19 12:04:37;;;;;;;;;;;;;;;26.09;38.87;100631.78;5019039;28;1879;-88
2022/07/19 12:07:03;;;;;;;;;;;;;;;26.17;39.16;100635.47;5002111;28;1249;-89
2022/07/19 12:09:28;;;;;;;;;;;;;;;26.19;39.71;100630.28;5001265;28;1503;-88
2022/07/19 12:11:55;;;;;;;;;;;;;;;26.18;37.71;100626.66;5001600;28;1360;-86
2022/07/19 12:14:22;;;;;;;;;;;;;;;26.35;37.35;100626.09;5002160;28;1425;-86
2022/07/19 12:17:09;;;;;;;;;;;;;;;26.39;38.89;100623.31;5018129;28;1634;-88
2022/07/19 12:19:34;;;;;;;;;;;;;;;26.45;39.38;100613.38;5017245;28;1379;-90
2022/07/19 12:21:59;;;;;;;;;;;;;;;26.49;36.30;100613.38;5017843;28;1281;-87
2022/07/19 12:24:25;;;;;;;;;;;;;;;26.57;37.62;100613.06;5017616;28;1945;-89
2022/07/19 12:26:50;;;;;;;;;;;;;;;26.63;35.63;100614.31;5017686;28;1292;-88
2022/07/19 12:29:17;;;;;;;;;;;;;;;26.78;34.89;100606.88;5017814;28;1794;-88
2022/07/19 12:31:43;;;;;;;;;;;;;;;26.81;38.38;100605.25;5008642;28;1320;-88
2022/07/19 12:34:08;;;;;;;;;;;;;;;26.84;37.17;100607.31;5023085;28;1747;-88
2022/07/19 12:36:35;;;;;;;;;;;;;;;26.87;37.12;100592.50;5016912;28;1281;-87
2022/07/19 12:39:00;;;;;;;;;;;;;;;26.89;36.39;100592.88;5000970;28;1198;-87
2022/07/19 12:41:27;;;;;;;;;;;;;;;26.88;37.58;100591.31;5018171;28;1787;-87
2022/07/19 12:43:52;;;;;;;;;;;;;;;27.20;35.26;100589.56;5016545;28;1259;-87
2022/07/19 12:46:18;;;;;;;;;;;;;;;27.07;36.68;100588.25;5033081;28;1987;-87
2022/07/19 12:48:44;;;;;;;;;;;;;;;27.10;36.04;100577.06;4999977;28;1252;-87
2022/07/19 12:51:09;;;;;;;;;;;;;;;27.23;35.37;100574.72;5016807;28;1384;-88